Brechin, Canada
Current Conditions -  °F | °C
As of 1:00 PM on Thursday 27 Nov 2014 (Local Time) from CYQA Reporting Station
Overcast Overcast  
Wind Chill: 17°   Ceiling: 2400
Heat Index: 25°   Visibility: 9mi
Dew Point: 16°   Wind: 7mph
Humidity: 69%   Direction: 300°WNW
Pressure: 30.02"   Gusts: NA
Location:  44.55°N, 79.18°W
Report Text: CYQA 271800Z AUTO 30006KT 250V330 9SM OVC024 M04/M09 A3002 RMK SLP185
Loading
Personal Weather Stations






























Interactive Weather Map New forecast layout! Learn more

10-Day Weather Forecast

Advertisements
Track Severe Weather on mobile